Svinoy — V7RM5 — position and weather

sailwx.info

Track history (hours):
 
Tides and Currents Weather Stations Pressure Air Temp Water Temp Dewpoint Dewpoint Depression Visibility Wind Speed Wind Dir Waves Ship Positions

Svinoy

Last reported at 2018-Apr-01 18:13 UTC. Time now 2018-Apr-25 14:20 UTC.
Position N 09°11' W 079°52'.
Warning: this ship's position is 23 days out of date.

Length 190 m; draft 12 m.

Type: Cargo ship. MMSI: 538003541.

Date/timePositionNaut miles runAvg speedWind from/ knotsBaromVisibWave heightAir tempDewpointWater temp
2018-Apr-01 18:13N 09°11' W 079°52'2 8.7
2018-Apr-01 17:59N 09°12' W 079°54'3 6.5
2018-Apr-01 17:31N 09°14' W 079°56'0 0.3
2018-Apr-01 16:59N 09°14' W 079°56'0 0.0
2018-Apr-01 16:29N 09°14' W 079°56'0 0.0
2018-Apr-01 15:59N 09°14' W 079°56'0 0.1
2018-Apr-01 15:26N 09°14' W 079°56'0 0.0
2018-Apr-01 14:59N 09°14' W 079°56'0 0.0
2018-Apr-01 14:29N 09°14' W 079°56'0 0.0
2018-Apr-01 13:17N 09°14' W 079°56'0 0.0
2018-Apr-01 12:47N 09°14' W 079°56'0 0.0
2018-Apr-01 12:20N 09°14' W 079°56'0 0.0
2018-Apr-01 11:47N 09°14' W 079°56'0 0.0
2018-Apr-01 11:29N 09°14' W 079°56'0 0.0
2018-Apr-01 10:59N 09°14' W 079°56'0 0.1
2018-Apr-01 10:29N 09°14' W 079°56'0 0.0
2018-Apr-01 09:59N 09°14' W 079°56'0 0.1
2018-Apr-01 09:26N 09°14' W 079°56'0 0.0
2018-Apr-01 08:53N 09°14' W 079°56'0 0.1
2018-Apr-01 08:29N 09°14' W 079°56'0 0.0
2018-Apr-01 07:59N 09°14' W 079°56'0 0.1
2018-Apr-01 07:29N 09°14' W 079°56'0 0.0
2018-Apr-01 06:56N 09°14' W 079°56'0 0.0
2018-Apr-01 06:29N 09°14' W 079°56'0 0.0
2018-Apr-01 05:56N 09°14' W 079°56'0 0.0
2018-Apr-01 05:29N 09°14' W 079°56'0 0.0
2018-Apr-01 04:47N 09°14' W 079°56'0 0.0
2018-Apr-01 04:29N 09°14' W 079°56'0 0.0
2018-Apr-01 03:59N 09°14' W 079°56'0 0.0
2018-Apr-01 02:56N 09°14' W 079°56'0 0.0
2018-Apr-01 02:23N 09°14' W 079°56'0 0.0
2018-Apr-01 01:56N 09°14' W 079°56'0 0.0
2018-Apr-01 01:29N 09°14' W 079°56'0 0.0
2018-Apr-01 00:50N 09°14' W 079°56'0 0.0
2018-Apr-01 00:26N 09°14' W 079°56'0 0.0
2018-Mar-31 23:59N 09°14' W 079°56'0 0.0
2018-Mar-31 23:14N 09°14' W 079°56'0 0.0
2018-Mar-31 22:50N 09°14' W 079°56'0 0.0
2018-Mar-31 22:29N 09°14' W 079°56'0 0.0
2018-Mar-31 21:38N 09°14' W 079°56'0 0.0
2018-Mar-31 21:29N 09°14' W 079°56'0 0.0
2018-Mar-31 20:56N 09°14' W 079°56'0 0.0
2018-Mar-31 20:29N 09°14' W 079°56'0 0.0
2018-Mar-31 19:50N 09°14' W 079°56'0 0.0
2018-Mar-31 19:26N 09°14' W 079°56'0 0.0
2018-Mar-31 18:59N 09°14' W 079°56'0 0.0
2018-Mar-31 18:17N 09°14' W 079°56'0 0.0
2018-Mar-31 17:59N 09°14' W 079°56'0 0.0
2018-Mar-31 17:29N 09°14' W 079°56'0 0.0
2018-Mar-31 16:47N 09°14' W 079°56'0 0.0
2018-Mar-31 16:20N 09°14' W 079°56'0 0.0
2018-Mar-31 15:59N 09°14' W 079°56'0 0.0
2018-Mar-31 15:29N 09°14' W 079°56'0 0.0
2018-Mar-31 14:56N 09°14' W 079°56'0 0.0
2018-Mar-31 14:23N 09°14' W 079°56'0 0.0
2018-Mar-31 13:53N 09°14' W 079°56'0 0.0
2018-Mar-31 13:29N 09°14' W 079°56'0 0.0
2018-Mar-31 12:59N 09°14' W 079°56'0 0.0
2018-Mar-31 12:23N 09°14' W 079°56'0 0.0
2018-Mar-31 11:44N 09°14' W 079°56'0 0.0
2018-Mar-31 11:17N 09°14' W 079°56'0 0.0
2018-Mar-31 09:17N 09°14' W 079°56'0 0.1
2018-Mar-31 08:59N 09°14' W 079°56'0 0.0
2018-Mar-31 08:17N 09°14' W 079°56'0 0.1
2018-Mar-31 07:59N 09°14' W 079°56'0 0.1
2018-Mar-31 07:27N 09°14' W 079°56'2 3.3
2018-Mar-31 06:58N 09°16' W 079°55'2 0.8
2018-Mar-31 04:50N 09°17' W 079°55'1 4.1
2018-Mar-31 04:29N 09°19' W 079°55'4 8.3
2018-Mar-31 04:00N 09°23' W 079°55'3 5.7
2018-Mar-31 03:30N 09°25' W 079°55'4 7.9
2018-Mar-31 03:00N 09°29' W 079°54'4 6.9
2018-Mar-31 02:29N 09°33' W 079°53'  
2018-Mar-23 00:56N 21°44' W 089°27'511.2
2018-Mar-23 00:31N 21°41' W 089°31'611.2
2018-Mar-23 00:00N 21°38' W 089°36'511.1
2018-Mar-22 23:31N 21°34' W 089°41'611.8
2018-Mar-22 23:00N 21°28' W 089°42'510.8
2018-Mar-22 22:30N 21°23' W 089°42'2 4.8
2018-Mar-22 22:00N 21°21' W 089°41'0 0.1
2018-Mar-22 21:30N 21°21' W 089°41'0 0.0
2018-Mar-22 21:00N 21°21' W 089°41'0 0.0
2018-Mar-22 20:30N 21°21' W 089°41'0 0.0
2018-Mar-22 20:00N 21°21' W 089°41'0 0.0
2018-Mar-22 19:30N 21°21' W 089°41'0 0.0
2018-Mar-22 19:00N 21°21' W 089°41'0 0.0
2018-Mar-22 18:30N 21°21' W 089°41'  
Track history (hours):
 
Tides and Currents Weather Stations Pressure Air Temp Water Temp Dewpoint Dewpoint Depression Visibility Wind Speed Wind Dir Waves Ship Positions

Svinoy

Last reported at 2018-Apr-01 18:13 UTC. Time now 2018-Apr-25 14:20 UTC.
Position N 09°11' W 079°52'.
Warning: this ship's position is 23 days out of date.

Length 190 m; draft 12 m.

Type: Cargo ship. MMSI: 538003541.

Date/timePositionNaut miles runAvg speedWind from/ knotsBaromVisibWave heightAir tempDewpointWater temp
2018-Apr-01 18:13N 09°11' W 079°52'2 8.7
2018-Apr-01 17:59N 09°12' W 079°54'3 6.5
2018-Apr-01 17:31N 09°14' W 079°56'0 0.3
2018-Apr-01 16:59N 09°14' W 079°56'0 0.0
2018-Apr-01 16:29N 09°14' W 079°56'0 0.0
2018-Apr-01 15:59N 09°14' W 079°56'0 0.1
2018-Apr-01 15:26N 09°14' W 079°56'0 0.0
2018-Apr-01 14:59N 09°14' W 079°56'0 0.0
2018-Apr-01 14:29N 09°14' W 079°56'0 0.0
2018-Apr-01 13:17N 09°14' W 079°56'0 0.0
2018-Apr-01 12:47N 09°14' W 079°56'0 0.0
2018-Apr-01 12:20N 09°14' W 079°56'0 0.0
2018-Apr-01 11:47N 09°14' W 079°56'0 0.0
2018-Apr-01 11:29N 09°14' W 079°56'0 0.0
2018-Apr-01 10:59N 09°14' W 079°56'0 0.1
2018-Apr-01 10:29N 09°14' W 079°56'0 0.0
2018-Apr-01 09:59N 09°14' W 079°56'0 0.1
2018-Apr-01 09:26N 09°14' W 079°56'0 0.0
2018-Apr-01 08:53N 09°14' W 079°56'0 0.1
2018-Apr-01 08:29N 09°14' W 079°56'0 0.0
2018-Apr-01 07:59N 09°14' W 079°56'0 0.1
2018-Apr-01 07:29N 09°14' W 079°56'0 0.0
2018-Apr-01 06:56N 09°14' W 079°56'0 0.0
2018-Apr-01 06:29N 09°14' W 079°56'0 0.0
2018-Apr-01 05:56N 09°14' W 079°56'0 0.0
2018-Apr-01 05:29N 09°14' W 079°56'0 0.0
2018-Apr-01 04:47N 09°14' W 079°56'0 0.0
2018-Apr-01 04:29N 09°14' W 079°56'0 0.0
2018-Apr-01 03:59N 09°14' W 079°56'0 0.0
2018-Apr-01 02:56N 09°14' W 079°56'0 0.0
2018-Apr-01 02:23N 09°14' W 079°56'0 0.0
2018-Apr-01 01:56N 09°14' W 079°56'0 0.0
2018-Apr-01 01:29N 09°14' W 079°56'0 0.0
2018-Apr-01 00:50N 09°14' W 079°56'0 0.0
2018-Apr-01 00:26N 09°14' W 079°56'0 0.0
2018-Mar-31 23:59N 09°14' W 079°56'0 0.0
2018-Mar-31 23:14N 09°14' W 079°56'0 0.0
2018-Mar-31 22:50N 09°14' W 079°56'0 0.0
2018-Mar-31 22:29N 09°14' W 079°56'0 0.0
2018-Mar-31 21:38N 09°14' W 079°56'0 0.0
2018-Mar-31 21:29N 09°14' W 079°56'0 0.0
2018-Mar-31 20:56N 09°14' W 079°56'0 0.0
2018-Mar-31 20:29N 09°14' W 079°56'0 0.0
2018-Mar-31 19:50N 09°14' W 079°56'0 0.0
2018-Mar-31 19:26N 09°14' W 079°56'0 0.0
2018-Mar-31 18:59N 09°14' W 079°56'0 0.0
2018-Mar-31 18:17N 09°14' W 079°56'0 0.0
2018-Mar-31 17:59N 09°14' W 079°56'0 0.0
2018-Mar-31 17:29N 09°14' W 079°56'0 0.0
2018-Mar-31 16:47N 09°14' W 079°56'0 0.0
2018-Mar-31 16:20N 09°14' W 079°56'0 0.0
2018-Mar-31 15:59N 09°14' W 079°56'0 0.0
2018-Mar-31 15:29N 09°14' W 079°56'0 0.0
2018-Mar-31 14:56N 09°14' W 079°56'0 0.0
2018-Mar-31 14:23N 09°14' W 079°56'0 0.0
2018-Mar-31 13:53N 09°14' W 079°56'0 0.0
2018-Mar-31 13:29N 09°14' W 079°56'0 0.0
2018-Mar-31 12:59N 09°14' W 079°56'0 0.0
2018-Mar-31 12:23N 09°14' W 079°56'0 0.0
2018-Mar-31 11:44N 09°14' W 079°56'0 0.0
2018-Mar-31 11:17N 09°14' W 079°56'0 0.0
2018-Mar-31 09:17N 09°14' W 079°56'0 0.1
2018-Mar-31 08:59N 09°14' W 079°56'0 0.0
2018-Mar-31 08:17N 09°14' W 079°56'0 0.1
2018-Mar-31 07:59N 09°14' W 079°56'0 0.1
2018-Mar-31 07:27N 09°14' W 079°56'2 3.3
2018-Mar-31 06:58N 09°16' W 079°55'2 0.8
2018-Mar-31 04:50N 09°17' W 079°55'1 4.1
2018-Mar-31 04:29N 09°19' W 079°55'4 8.3
2018-Mar-31 04:00N 09°23' W 079°55'3 5.7
2018-Mar-31 03:30N 09°25' W 079°55'4 7.9
2018-Mar-31 03:00N 09°29' W 079°54'4 6.9
2018-Mar-31 02:29N 09°33' W 079°53'  
2018-Mar-23 00:56N 21°44' W 089°27'511.2
2018-Mar-23 00:31N 21°41' W 089°31'611.2
2018-Mar-23 00:00N 21°38' W 089°36'511.1
2018-Mar-22 23:31N 21°34' W 089°41'611.8
2018-Mar-22 23:00N 21°28' W 089°42'510.8
2018-Mar-22 22:30N 21°23' W 089°42'2 4.8
2018-Mar-22 22:00N 21°21' W 089°41'0 0.1
2018-Mar-22 21:30N 21°21' W 089°41'0 0.0
2018-Mar-22 21:00N 21°21' W 089°41'0 0.0
2018-Mar-22 20:30N 21°21' W 089°41'0 0.0
2018-Mar-22 20:00N 21°21' W 089°41'0 0.0
2018-Mar-22 19:30N 21°21' W 089°41'0 0.0
2018-Mar-22 19:00N 21°21' W 089°41'0 0.0
2018-Mar-22 18:30N 21°21' W 089°41'  

Dump ship's entire track history